createdAt,value
2022-08-03T00:02:19.676Z,19.32
2022-08-03T00:04:48.188Z,19.29
2022-08-03T00:07:16.941Z,19.28
2022-08-03T00:09:44.808Z,19.25
2022-08-03T00:12:12.673Z,19.23
2022-08-03T00:14:40.387Z,19.21
2022-08-03T00:17:08.713Z,19.19
2022-08-03T00:19:36.405Z,19.15
2022-08-03T00:22:04.166Z,19.11
2022-08-03T00:24:31.948Z,19.07
2022-08-03T00:26:59.719Z,19.06
2022-08-03T00:29:27.691Z,19.05
2022-08-03T00:32:00.318Z,19.04
2022-08-03T00:34:36.204Z,19.02
2022-08-03T00:37:16.692Z,19.01
2022-08-03T00:39:46.244Z,19.00
2022-08-03T00:42:14.504Z,18.99
2022-08-03T00:44:46.034Z,18.97
2022-08-03T00:47:13.773Z,18.96
2022-08-03T00:49:42.609Z,18.94
2022-08-03T00:52:11.683Z,18.93
2022-08-03T00:54:40.087Z,18.90
2022-08-03T00:57:08.465Z,18.88
2022-08-03T00:59:38.207Z,18.87
2022-08-03T01:02:06.504Z,18.84
2022-08-03T01:04:34.212Z,18.83
2022-08-03T01:07:46.658Z,18.82
2022-08-03T01:10:54.497Z,18.78
2022-08-03T01:14:01.433Z,18.77
2022-08-03T01:17:02.028Z,18.75
2022-08-03T01:20:05.077Z,18.70
2022-08-03T01:23:31.357Z,18.66
2022-08-03T01:26:25.056Z,18.60
2022-08-03T01:29:18.847Z,18.57
2022-08-03T01:32:59.744Z,18.57
2022-08-03T01:35:03.685Z,18.62
2022-08-03T01:37:48.119Z,18.67
2022-08-03T01:40:19.551Z,18.72
2022-08-03T01:42:50.612Z,18.75
2022-08-03T01:45:19.759Z,18.77
2022-08-03T01:47:49.974Z,18.79
2022-08-03T01:50:24.117Z,18.82
2022-08-03T01:52:54.480Z,18.85
2022-08-03T01:55:24.389Z,18.86
2022-08-03T01:58:06.126Z,18.91
2022-08-03T02:00:39.776Z,18.95
2022-08-03T02:03:09.676Z,18.98
2022-08-03T02:05:40.102Z,19.00
2022-08-03T02:08:13.762Z,19.03
2022-08-03T02:10:43.512Z,19.05
2022-08-03T02:13:12.643Z,19.07
2022-08-03T02:15:42.982Z,19.09
2022-08-03T02:18:13.341Z,19.13
2022-08-03T02:20:44.498Z,19.16
2022-08-03T02:23:14.838Z,19.18
2022-08-03T02:25:49.761Z,19.20
2022-08-03T02:28:20.986Z,19.22
2022-08-03T02:30:53.922Z,19.24
2022-08-03T02:33:31.704Z,19.23
2022-08-03T02:36:02.084Z,19.22
2022-08-03T02:38:34.870Z,19.27
2022-08-03T02:41:10.549Z,19.29
2022-08-03T02:44:06.271Z,19.28
2022-08-03T02:46:34.188Z,19.28
2022-08-03T02:49:41.127Z,19.30
2022-08-03T02:51:54.372Z,19.33
2022-08-03T02:54:25.226Z,19.32
2022-08-03T02:56:56.787Z,19.29
2022-08-03T02:59:26.360Z,19.28
2022-08-03T03:01:55.638Z,19.29
2022-08-03T03:04:25.690Z,19.31
2022-08-03T03:07:01.679Z,19.35
2022-08-03T03:09:41.567Z,19.40
2022-08-03T03:12:14.083Z,19.41
2022-08-03T03:14:42.358Z,19.41
2022-08-03T03:17:12.327Z,19.41
2022-08-03T03:19:41.518Z,19.40
2022-08-03T03:22:10.574Z,19.40
2022-08-03T03:24:41.573Z,19.43
2022-08-03T03:27:09.793Z,19.42
2022-08-03T03:29:39.405Z,19.43
2022-08-03T03:32:09.134Z,19.47
2022-08-03T03:34:41.059Z,19.47
2022-08-03T03:37:12.183Z,19.47
2022-08-03T03:39:40.049Z,19.46
2022-08-03T03:42:07.893Z,19.47
2022-08-03T03:44:35.790Z,19.46
2022-08-03T03:47:04.184Z,19.46
2022-08-03T03:49:32.613Z,19.46
2022-08-03T03:52:00.409Z,19.44
2022-08-03T03:54:44.023Z,19.45
2022-08-03T03:57:13.655Z,19.43
2022-08-03T03:59:42.858Z,19.43
2022-08-03T04:02:12.376Z,19.42
2022-08-03T04:04:59.027Z,19.39
2022-08-03T04:07:46.346Z,19.37
2022-08-03T04:10:38.693Z,19.35
2022-08-03T04:13:13.546Z,19.34
2022-08-03T04:15:42.258Z,19.34
2022-08-03T04:18:15.578Z,19.37
2022-08-03T04:20:48.805Z,19.36
2022-08-03T04:23:24.569Z,19.35
2022-08-03T04:25:56.261Z,19.37
2022-08-03T04:28:30.793Z,19.36
2022-08-03T04:31:01.597Z,19.34
2022-08-03T04:33:33.502Z,19.33
2022-08-03T04:36:08.062Z,19.33
2022-08-03T04:38:58.042Z,19.34
2022-08-03T04:41:27.761Z,19.32
2022-08-03T04:44:00.268Z,19.32
2022-08-03T04:46:39.213Z,19.31
2022-08-03T04:49:10.433Z,19.31
2022-08-03T04:51:40.558Z,19.26
2022-08-03T04:54:13.309Z,19.22
2022-08-03T04:56:41.957Z,19.21
2022-08-03T04:59:10.753Z,19.22
2022-08-03T05:01:41.520Z,19.20
2022-08-03T05:04:09.810Z,19.18
2022-08-03T05:06:41.408Z,19.15
2022-08-03T05:09:16.202Z,19.10
2022-08-03T05:12:05.563Z,19.11
2022-08-03T05:14:34.736Z,19.10
2022-08-03T05:17:02.558Z,19.10
2022-08-03T05:19:30.589Z,19.10
2022-08-03T05:21:59.575Z,19.15
2022-08-03T05:24:27.422Z,19.16
2022-08-03T05:26:55.126Z,19.17
2022-08-03T05:29:22.943Z,19.19
2022-08-03T05:31:50.665Z,19.22
2022-08-03T05:34:18.349Z,19.28
2022-08-03T05:36:46.074Z,19.33
2022-08-03T05:39:13.863Z,19.35
2022-08-03T05:41:41.719Z,19.41
2022-08-03T05:44:09.454Z,19.40
2022-08-03T05:46:37.193Z,19.43
2022-08-03T05:49:05.080Z,19.50
2022-08-03T05:51:32.871Z,19.57
2022-08-03T05:54:00.631Z,19.64
2022-08-03T05:56:28.611Z,19.70
2022-08-03T05:58:56.376Z,19.71
2022-08-03T06:01:24.492Z,19.74
2022-08-03T06:03:52.812Z,19.77
2022-08-03T06:06:20.621Z,19.81
2022-08-03T06:08:48.899Z,19.83
2022-08-03T06:11:16.852Z,19.84
2022-08-03T06:13:44.864Z,19.87
2022-08-03T06:16:12.689Z,19.89
2022-08-03T06:18:40.525Z,19.90
2022-08-03T06:21:14.694Z,19.91
2022-08-03T06:23:54.306Z,19.96
2022-08-03T06:26:27.917Z,20.00
2022-08-03T06:28:56.190Z,20.02
2022-08-03T06:31:32.809Z,20.08
2022-08-03T06:34:33.305Z,20.14
2022-08-03T06:36:58.593Z,20.19
2022-08-03T06:39:29.498Z,20.24
2022-08-03T06:41:57.956Z,20.27
2022-08-03T06:44:26.149Z,20.31
2022-08-03T06:46:53.976Z,20.34
2022-08-03T06:49:21.974Z,20.34
2022-08-03T06:52:06.263Z,20.34
2022-08-03T06:54:35.765Z,20.34
2022-08-03T06:57:04.238Z,20.36
2022-08-03T07:00:06.135Z,20.39
2022-08-03T07:02:20.396Z,20.41
2022-08-03T07:04:49.141Z,20.46
2022-08-03T07:07:17.780Z,20.49
2022-08-03T07:09:55.670Z,20.50
2022-08-03T07:12:30.287Z,20.54
2022-08-03T07:15:01.757Z,20.64
2022-08-03T07:17:32.657Z,20.74
2022-08-03T07:20:03.619Z,20.84
2022-08-03T07:22:31.460Z,20.89
2022-08-03T07:24:59.576Z,20.96
2022-08-03T07:27:28.550Z,21.10
2022-08-03T07:29:58.488Z,21.22
2022-08-03T07:32:27.022Z,21.27
2022-08-03T07:34:58.470Z,21.23
2022-08-03T07:37:29.942Z,21.20
2022-08-03T07:39:58.455Z,21.16
2022-08-03T07:42:28.195Z,21.18
2022-08-03T07:44:57.225Z,21.22
2022-08-03T07:47:35.416Z,21.28
2022-08-03T07:50:06.511Z,21.38
2022-08-03T07:52:48.620Z,21.50
2022-08-03T07:55:22.347Z,21.67
2022-08-03T07:58:05.214Z,21.80
2022-08-03T08:00:33.944Z,21.89
2022-08-03T08:03:02.478Z,22.02
2022-08-03T08:05:30.846Z,22.16
2022-08-03T08:07:58.659Z,22.29
2022-08-03T08:10:26.522Z,22.40
2022-08-03T08:12:55.548Z,22.60
2022-08-03T08:15:23.993Z,22.66
2022-08-03T08:17:55.978Z,22.75
2022-08-03T08:20:35.015Z,22.81
2022-08-03T08:23:34.512Z,22.94
2022-08-03T08:25:56.674Z,23.12
2022-08-03T08:28:30.215Z,23.20
2022-08-03T08:31:00.222Z,23.12
2022-08-03T08:33:42.249Z,23.17
2022-08-03T08:36:15.983Z,23.25
2022-08-03T08:38:45.142Z,23.32
2022-08-03T08:41:15.010Z,23.47
2022-08-03T08:43:43.709Z,23.59
2022-08-03T08:46:23.474Z,23.60
2022-08-03T08:48:54.579Z,23.54
2022-08-03T08:51:50.461Z,23.58
2022-08-03T08:54:22.563Z,23.73
2022-08-03T08:56:52.636Z,23.85
2022-08-03T08:59:21.922Z,23.96
2022-08-03T09:01:49.721Z,23.95
2022-08-03T09:04:18.035Z,24.02
2022-08-03T09:06:58.853Z,24.17
2022-08-03T09:10:11.949Z,24.25
2022-08-03T09:12:41.195Z,24.21
2022-08-03T09:15:33.195Z,24.14
2022-08-03T09:18:04.174Z,24.06
2022-08-03T09:20:34.983Z,23.96
2022-08-03T09:23:26.319Z,23.85
2022-08-03T09:26:00.088Z,23.83
2022-08-03T09:29:00.594Z,23.75
2022-08-03T09:31:37.289Z,23.81
2022-08-03T09:34:14.539Z,23.97
2022-08-03T09:36:50.151Z,24.16
2022-08-03T09:39:40.433Z,24.22
2022-08-03T09:42:18.667Z,24.38
2022-08-03T09:44:52.397Z,24.50
2022-08-03T09:47:37.557Z,24.62
2022-08-03T09:50:12.959Z,24.70
2022-08-03T09:52:49.737Z,24.67
2022-08-03T09:56:32.916Z,24.66
2022-08-03T09:58:11.304Z,24.71
2022-08-03T10:00:55.922Z,24.75
2022-08-03T10:03:26.989Z,24.65
2022-08-03T10:05:59.766Z,24.52
2022-08-03T10:08:28.014Z,24.35
2022-08-03T10:10:57.883Z,24.35
2022-08-03T10:13:25.714Z,24.34
2022-08-03T10:16:24.146Z,24.33
2022-08-03T10:18:41.201Z,24.27
2022-08-03T10:21:16.569Z,24.20
2022-08-03T10:23:44.689Z,24.12
2022-08-03T10:26:19.014Z,24.07
2022-08-03T10:28:50.547Z,24.04
2022-08-03T10:31:22.256Z,24.03
2022-08-03T10:33:55.452Z,24.02
2022-08-03T10:36:27.354Z,24.09
2022-08-03T10:38:57.248Z,24.10
2022-08-03T10:41:32.418Z,24.11
2022-08-03T10:44:13.298Z,24.20
2022-08-03T10:46:45.206Z,24.27
2022-08-03T10:49:25.473Z,24.36
2022-08-03T10:52:13.441Z,24.39
2022-08-03T10:55:11.855Z,24.36
2022-08-03T10:57:58.506Z,24.45
2022-08-03T11:00:30.289Z,24.65
2022-08-03T11:03:14.021Z,24.82
2022-08-03T11:05:43.764Z,24.98
2022-08-03T11:08:30.987Z,25.14
2022-08-03T11:11:03.538Z,25.27
2022-08-03T11:13:33.695Z,25.46
2022-08-03T11:16:21.855Z,25.60
2022-08-03T11:19:01.699Z,25.67
2022-08-03T11:21:51.657Z,25.69
2022-08-03T11:24:37.593Z,25.60
2022-08-03T11:27:14.324Z,25.58
2022-08-03T11:30:06.710Z,25.59
2022-08-03T11:32:37.388Z,25.76
2022-08-03T11:35:16.741Z,25.98
2022-08-03T11:38:05.995Z,26.17
2022-08-03T11:40:39.869Z,26.15
2022-08-03T11:43:21.949Z,26.16
2022-08-03T11:46:02.416Z,26.26
2022-08-03T11:48:43.837Z,26.31
2022-08-03T11:51:22.858Z,26.32
2022-08-03T11:54:06.142Z,26.36
2022-08-03T11:56:49.632Z,26.36
2022-08-03T11:59:21.806Z,26.30
2022-08-03T12:01:50.907Z,26.29
2022-08-03T12:04:18.717Z,26.35
2022-08-03T12:07:01.940Z,26.55
2022-08-03T12:09:29.660Z,26.64
2022-08-03T12:12:00.493Z,26.67
2022-08-03T12:14:48.577Z,26.59
2022-08-03T12:17:18.695Z,26.27
2022-08-03T12:19:47.088Z,26.21
2022-08-03T12:22:16.778Z,26.30
2022-08-03T12:24:47.160Z,26.42
2022-08-03T12:27:27.748Z,26.60
2022-08-03T12:29:59.269Z,26.67
2022-08-03T12:32:29.767Z,26.61
2022-08-03T12:35:01.278Z,26.54
2022-08-03T12:37:30.571Z,26.48
2022-08-03T12:40:07.756Z,26.58
2022-08-03T12:42:40.180Z,26.65
2022-08-03T12:45:26.284Z,26.66
2022-08-03T12:47:59.907Z,26.68
2022-08-03T12:50:34.887Z,26.71
2022-08-03T12:53:08.009Z,26.80
2022-08-03T12:55:56.494Z,26.93
2022-08-03T12:58:34.119Z,27.06
2022-08-03T13:01:09.677Z,27.18
2022-08-03T13:03:50.281Z,27.00
2022-08-03T13:06:25.725Z,27.02
2022-08-03T13:09:07.862Z,27.01
2022-08-03T13:11:58.079Z,26.95
2022-08-03T13:14:23.914Z,26.87
2022-08-03T13:16:51.881Z,26.87
2022-08-03T13:19:19.723Z,27.00
2022-08-03T13:21:53.783Z,27.22
2022-08-03T13:24:33.798Z,27.38
2022-08-03T13:27:58.910Z,27.28
2022-08-03T13:29:50.885Z,27.16
2022-08-03T13:32:19.575Z,27.09
2022-08-03T13:34:47.551Z,27.06
2022-08-03T13:37:15.994Z,27.06
2022-08-03T13:39:57.339Z,27.05
2022-08-03T13:42:30.964Z,27.02
2022-08-03T13:45:00.371Z,26.97
2022-08-03T13:47:28.458Z,26.90
2022-08-03T13:50:01.826Z,26.87
2022-08-03T13:52:33.460Z,27.01
2022-08-03T13:55:02.052Z,27.17
2022-08-03T13:58:03.904Z,27.23
2022-08-03T14:00:27.946Z,27.26
2022-08-03T14:03:05.261Z,27.25
2022-08-03T14:05:38.724Z,27.31
2022-08-03T14:08:07.954Z,27.27
2022-08-03T14:10:38.469Z,27.17
2022-08-03T14:13:07.421Z,27.07
2022-08-03T14:15:37.436Z,27.08
2022-08-03T14:18:12.813Z,27.14
2022-08-03T14:20:49.996Z,27.04
2022-08-03T14:23:19.671Z,26.88
2022-08-03T14:25:51.629Z,26.85
2022-08-03T14:28:23.131Z,26.86
2022-08-03T14:30:56.058Z,26.83
2022-08-03T14:33:24.528Z,26.78
2022-08-03T14:35:53.366Z,26.74
2022-08-03T14:38:22.223Z,26.81
2022-08-03T14:40:51.353Z,26.93
2022-08-03T14:43:22.334Z,26.92
2022-08-03T14:45:53.375Z,26.78
2022-08-03T14:50:33.568Z,26.57
2022-08-03T14:51:10.903Z,26.39
2022-08-03T14:53:38.652Z,26.26
2022-08-03T14:56:10.135Z,26.18
2022-08-03T14:58:38.733Z,26.11
2022-08-03T15:02:03.167Z,26.02
2022-08-03T15:03:55.320Z,25.84
2022-08-03T15:06:23.035Z,25.88
2022-08-03T15:09:13.609Z,26.00
2022-08-03T15:11:39.313Z,26.13
2022-08-03T15:14:09.346Z,26.24
2022-08-03T15:16:38.754Z,26.30
2022-08-03T15:20:00.818Z,26.34
2022-08-03T15:21:54.539Z,26.37
2022-08-03T15:24:22.325Z,26.43
2022-08-03T15:26:52.360Z,26.55
2022-08-03T15:30:05.356Z,26.59
2022-08-03T15:32:09.634Z,26.62
2022-08-03T15:34:37.600Z,26.74
2022-08-03T15:37:16.243Z,26.86
2022-08-03T15:39:59.053Z,26.98
2022-08-03T15:42:30.510Z,27.08
2022-08-03T15:44:59.128Z,27.15
2022-08-03T15:47:27.451Z,27.24
2022-08-03T15:49:55.258Z,27.27
2022-08-03T15:52:23.098Z,27.20
2022-08-03T15:54:50.945Z,27.13
2022-08-03T15:57:19.209Z,27.06
2022-08-03T15:59:47.614Z,26.96
2022-08-03T16:02:16.198Z,26.94
2022-08-03T16:04:43.980Z,26.92
2022-08-03T16:07:12.775Z,26.86
2022-08-03T16:09:42.831Z,26.74
2022-08-03T16:12:16.384Z,26.75
2022-08-03T16:14:52.712Z,26.80
2022-08-03T16:17:22.246Z,26.81
2022-08-03T16:19:54.113Z,26.90
2022-08-03T16:22:24.825Z,26.89
2022-08-03T16:24:54.611Z,26.89
2022-08-03T16:27:56.853Z,27.06
2022-08-03T16:30:15.292Z,27.09
2022-08-03T16:32:45.404Z,27.06
2022-08-03T16:35:19.560Z,26.95
2022-08-03T16:37:54.636Z,26.82
2022-08-03T16:40:25.127Z,26.69
2022-08-03T16:42:52.976Z,26.54
2022-08-03T16:45:21.147Z,26.44
2022-08-03T16:47:49.085Z,26.34
2022-08-03T16:50:35.313Z,26.26
2022-08-03T16:53:16.438Z,26.22
2022-08-03T16:55:53.922Z,26.12
2022-08-03T16:58:41.482Z,25.98
2022-08-03T17:01:22.444Z,25.85
2022-08-03T17:04:04.874Z,25.75
2022-08-03T17:06:45.087Z,25.64
2022-08-03T17:09:20.816Z,25.53
2022-08-03T17:11:50.995Z,25.39
2022-08-03T17:14:28.369Z,25.31
2022-08-03T17:17:03.700Z,25.25
2022-08-03T17:19:34.966Z,25.22
2022-08-03T17:22:12.334Z,25.21
2022-08-03T17:25:07.618Z,25.20
2022-08-03T17:28:49.565Z,25.27
2022-08-03T17:30:46.505Z,25.35
2022-08-03T17:33:20.669Z,25.40
2022-08-03T17:35:53.277Z,25.48
2022-08-03T17:38:24.961Z,25.53
2022-08-03T17:41:00.170Z,25.46
2022-08-03T17:44:12.957Z,25.39
2022-08-03T17:46:16.345Z,25.24
2022-08-03T17:48:47.614Z,25.09
2022-08-03T17:51:46.515Z,24.98
2022-08-03T17:54:28.478Z,24.77
2022-08-03T17:57:22.504Z,24.67
2022-08-03T18:00:25.944Z,24.63
2022-08-03T18:03:31.618Z,24.54
2022-08-03T18:06:27.881Z,24.34
2022-08-03T18:09:00.178Z,24.30
2022-08-03T18:11:35.531Z,24.29
2022-08-03T18:14:57.413Z,24.24
2022-08-03T18:17:55.337Z,24.23
2022-08-03T18:20:34.567Z,24.19
2022-08-03T18:23:25.393Z,24.14
2022-08-03T18:26:06.721Z,24.04
2022-08-03T18:28:38.377Z,24.01
2022-08-03T18:31:09.810Z,23.96
2022-08-03T18:34:18.323Z,23.92
2022-08-03T18:36:32.926Z,23.89
2022-08-03T18:39:12.018Z,23.81
2022-08-03T18:41:46.134Z,23.74
2022-08-03T18:44:52.498Z,23.67
2022-08-03T18:47:16.266Z,23.67
2022-08-03T18:50:06.288Z,23.74
2022-08-03T18:52:56.861Z,23.84
2022-08-03T18:55:35.319Z,23.93
2022-08-03T18:58:03.286Z,24.01
2022-08-03T19:00:42.403Z,24.00
2022-08-03T19:03:43.414Z,24.04
2022-08-03T19:06:23.077Z,24.02
2022-08-03T19:09:13.012Z,23.96
2022-08-03T19:12:11.025Z,23.90
2022-08-03T19:14:52.495Z,23.83
2022-08-03T19:17:22.658Z,23.81
2022-08-03T19:19:58.787Z,23.76
2022-08-03T19:22:30.961Z,23.67
2022-08-03T19:25:04.762Z,23.59
2022-08-03T19:27:35.184Z,23.46
2022-08-03T19:30:16.805Z,23.33
2022-08-03T19:32:50.921Z,23.21
2022-08-03T19:35:54.799Z,23.09
2022-08-03T19:38:09.708Z,22.93
2022-08-03T19:40:50.970Z,22.85
2022-08-03T19:43:52.713Z,22.73
2022-08-03T19:46:30.201Z,22.58
2022-08-03T19:49:15.228Z,22.48
2022-08-03T19:52:01.255Z,22.41
2022-08-03T19:57:36.568Z,22.23
2022-08-03T20:00:11.884Z,22.16
2022-08-03T20:02:41.026Z,22.07
2022-08-03T20:05:14.982Z,21.99
2022-08-03T20:07:47.734Z,21.90
2022-08-03T20:10:19.835Z,21.84
2022-08-03T20:12:49.657Z,21.80
2022-08-03T20:15:22.236Z,21.67
2022-08-03T20:17:55.343Z,21.55
2022-08-03T20:20:31.235Z,21.51
2022-08-03T20:23:02.709Z,21.47
2022-08-03T20:25:57.020Z,21.38
2022-08-03T20:28:50.147Z,21.33
2022-08-03T20:31:25.188Z,21.28
2022-08-03T20:34:00.813Z,21.22
2022-08-03T20:36:28.958Z,21.19
2022-08-03T20:38:58.774Z,21.15
2022-08-03T20:41:27.445Z,21.11
2022-08-03T20:43:55.268Z,21.06
2022-08-03T20:46:30.905Z,21.00
2022-08-03T20:49:03.904Z,21.00
2022-08-03T20:51:50.083Z,20.93
2022-08-03T20:54:29.578Z,20.84
2022-08-03T20:57:03.612Z,20.79
2022-08-03T20:59:50.675Z,20.71
2022-08-03T21:02:29.976Z,20.59
2022-08-03T21:05:08.544Z,20.53
2022-08-03T21:10:39.270Z,20.37
2022-08-03T21:13:03.182Z,22.35
2022-08-03T21:13:08.099Z,20.47
2022-08-03T21:13:47.262Z,20.27
2022-08-03T21:16:17.179Z,20.18
2022-08-03T21:18:51.075Z,20.14
2022-08-03T21:21:22.302Z,20.11
2022-08-03T21:23:54.750Z,20.09
2022-08-03T21:26:26.142Z,20.08
2022-08-03T21:28:56.750Z,20.04
2022-08-03T21:31:26.804Z,20.03
2022-08-03T21:34:03.406Z,20.01
2022-08-03T21:36:35.949Z,19.96
2022-08-03T21:39:08.316Z,19.90
2022-08-03T21:41:39.594Z,19.84
2022-08-03T21:44:08.133Z,19.81
2022-08-03T21:46:40.331Z,19.75
2022-08-03T21:49:51.711Z,19.72
2022-08-03T21:52:05.635Z,19.69
2022-08-03T21:54:42.163Z,19.62
2022-08-03T21:57:24.188Z,19.56
2022-08-03T22:00:02.063Z,19.54
2022-08-03T22:02:32.054Z,19.49
2022-08-03T22:05:00.659Z,19.45
2022-08-03T22:07:34.632Z,19.43
2022-08-03T22:10:06.412Z,19.40
2022-08-03T22:12:35.616Z,19.35
2022-08-03T22:15:11.339Z,19.30
2022-08-03T22:17:55.709Z,19.23
2022-08-03T22:20:25.814Z,19.14
2022-08-03T22:22:56.930Z,19.11
2022-08-03T22:25:31.139Z,19.07
2022-08-03T22:28:09.082Z,19.03
2022-08-03T22:30:39.306Z,18.99
2022-08-03T22:33:11.710Z,18.97
2022-08-03T22:35:47.709Z,18.95
2022-08-03T22:38:18.685Z,18.89
2022-08-03T22:40:49.784Z,18.86
2022-08-03T22:43:17.703Z,18.86
2022-08-03T22:46:09.616Z,18.80
2022-08-03T22:48:41.221Z,18.77
2022-08-03T22:51:10.111Z,18.75
2022-08-03T22:53:39.336Z,18.70
2022-08-03T22:56:07.743Z,18.68
2022-08-03T22:58:35.492Z,18.64
2022-08-03T23:01:08.520Z,18.57
2022-08-03T23:03:59.163Z,18.53
2022-08-03T23:06:38.352Z,18.54
2022-08-03T23:09:11.211Z,18.60
2022-08-03T23:11:45.189Z,18.65
2022-08-03T23:14:18.435Z,18.73
2022-08-03T23:16:47.523Z,18.81
2022-08-03T23:19:25.712Z,18.87
2022-08-03T23:22:03.565Z,18.91
2022-08-03T23:24:36.611Z,18.95
2022-08-03T23:27:08.061Z,18.95
2022-08-03T23:29:37.934Z,18.95
2022-08-03T23:32:07.027Z,18.99
2022-08-03T23:34:57.673Z,19.00
2022-08-03T23:37:26.490Z,19.09
2022-08-03T23:39:57.263Z,19.14
2022-08-03T23:42:26.087Z,19.17
2022-08-03T23:45:05.445Z,19.15
2022-08-03T23:47:46.519Z,19.18
2022-08-03T23:50:16.234Z,19.20
2022-08-03T23:52:59.933Z,19.21
2022-08-03T23:56:12.609Z,19.21
2022-08-03T23:59:09.010Z,19.18
